Time;durP1;ratioP1;P1;durP2;ratioP2;P2;SDS_P1;SDS_P2;PMS_P1;PMS_P2;Temp;Humidity;BMP_temperature;BMP_pressure;BME280_temperature;BME280_humidity;BME280_pressure;Samples;Min_cycle;Max_cycle;Signal;HPM_P1;HPM_P2
2020/12/02 00:01:17;;;;;;;77.88;52.53;;;3.30;99.90;;;;;;5071164;28;20431;-79
2020/12/02 00:03:54;;;;;;;68.90;47.45;;;3.40;99.90;;;;;;5076699;28;20402;-79
2020/12/02 00:06:22;;;;;;;64.70;45.83;;;3.60;99.90;;;;;;5066665;28;20425;-79
2020/12/02 00:08:53;;;;;;;66.38;47.65;;;3.80;99.90;;;;;;5068016;28;20408;-79
2020/12/02 00:11:21;;;;;;;69.57;49.30;;;3.80;99.90;;;;;;5059427;28;20405;-79
2020/12/02 00:13:49;;;;;;;66.97;47.53;;;3.80;99.90;;;;;;5076922;28;20495;-79
2020/12/02 00:16:20;;;;;;;67.32;48.20;;;3.70;99.90;;;;;;5063119;28;20397;-79
2020/12/02 00:18:46;;;;;;;68.87;48.33;;;3.70;99.90;;;;;;5065046;28;20378;-79
2020/12/02 00:21:13;;;;;;;63.13;47.38;;;3.80;99.90;;;;;;5071866;28;20869;-79
2020/12/02 00:23:39;;;;;;;68.75;48.95;;;3.80;99.90;;;;;;5074149;28;20384;-79
2020/12/02 00:26:06;;;;;;;64.10;47.67;;;3.90;99.90;;;;;;5073119;28;20449;-79
2020/12/02 00:28:32;;;;;;;61.95;46.05;;;4.00;99.90;;;;;;5069074;28;20447;-79
2020/12/02 00:30:58;;;;;;;63.45;47.17;;;4.00;99.90;;;;;;5066720;28;20394;-79
2020/12/02 00:33:25;;;;;;;60.67;45.10;;;;;;;;;;5074332;28;20406;-78
2020/12/02 00:35:52;;;;;;;70.07;50.90;;;;;;;;;;5078115;28;20392;-78
2020/12/02 00:38:19;;;;;;;74.75;52.28;;;;;;;;;;5104536;27;20507;-79
2020/12/02 00:40:45;;;;;;;65.53;47.95;;;4.10;99.90;;;;;;5102390;27;20840;-78
2020/12/02 00:43:13;;;;;;;66.77;47.33;;;3.80;99.90;;;;;;5118608;27;20391;-79
2020/12/02 00:45:41;;;;;;;73.97;52.90;;;3.90;99.90;;;;;;5105479;28;20753;-79
2020/12/02 00:48:11;;;;;;;66.95;49.25;;;3.80;99.90;;;;;;5097675;28;20415;-79
2020/12/02 00:50:37;;;;;;;76.38;53.55;;;3.80;99.90;;;;;;5105435;28;20399;-79
2020/12/02 00:53:05;;;;;;;64.65;47.20;;;3.70;99.90;;;;;;5123470;27;20470;-79
2020/12/02 00:55:32;;;;;;;68.18;49.03;;;3.70;99.90;;;;;;5117569;27;20493;-79
2020/12/02 00:58:03;;;;;;;65.25;47.13;;;3.80;99.90;;;;;;5103995;27;20391;-79
2020/12/02 01:00:35;;;;;;;67.68;48.33;;;3.90;99.90;;;;;;5097379;28;20435;-79
2020/12/02 01:03:06;;;;;;;70.13;49.22;;;3.90;99.90;;;;;;5090796;28;20406;-79
2020/12/02 01:05:34;;;;;;;68.93;46.13;;;3.80;99.90;;;;;;5114451;28;20449;-79
2020/12/02 01:08:23;;;;;;;68.78;45.40;;;3.80;99.90;;;;;;5123016;27;20388;-78
2020/12/02 01:10:57;;;;;;;68.30;45.70;;;3.70;99.90;;;;;;5109749;27;25113;-78
2020/12/02 01:13:22;;;;;;;71.70;46.35;;;3.50;99.90;;;;;;5103327;28;20417;-79
2020/12/02 01:15:48;;;;;;;69.22;45.55;;;3.50;99.90;;;;;;5095463;27;20413;-79
2020/12/02 01:18:25;;;;;;;77.70;47.87;;;3.00;99.90;;;;;;5096315;28;20386;-79
2020/12/02 01:20:55;;;;;;;90.70;53.25;;;;;;;;;;5110034;28;20411;-79
2020/12/02 01:23:21;;;;;;;90.07;52.95;;;;;;;;;;5097565;28;20408;-79
2020/12/02 01:25:48;;;;;;;99.05;55.90;;;;;;;;;;5127447;27;20421;-79
2020/12/02 01:28:18;;;;;;;100.43;54.65;;;;;;;;;;5110325;27;20449;-79
2020/12/02 01:30:44;;;;;;;91.50;51.90;;;;;;;;;;5103755;28;20436;-79
2020/12/02 01:33:14;;;;;;;79.95;48.08;;;;;;;;;;5114190;28;20388;-78
2020/12/02 01:35:42;;;;;;;79.30;48.70;;;;;;;;;;5105808;28;20891;-79
2020/12/02 01:38:08;;;;;;;79.17;48.17;;;;;;;;;;5096098;28;20412;-78
2020/12/02 01:40:35;;;;;;;76.60;47.35;;;;;;;;;;5100302;28;20420;-79
2020/12/02 01:43:02;;;;;;;74.03;45.92;;;;;;;;;;5107686;28;20451;-78
2020/12/02 01:45:30;;;;;;;69.25;43.70;;;;;;;;;;5107755;28;20384;-79
2020/12/02 01:48:02;;;;;;;62.45;41.28;;;;;;;;;;5100123;28;20393;-80
2020/12/02 01:50:33;;;;;;;58.90;38.10;;;;;;;;;;5096223;28;20938;-79
2020/12/02 01:53:05;;;;;;;54.05;36.55;;;;;;;;;;5112083;28;20396;-79
2020/12/02 01:55:34;;;;;;;51.70;35.55;;;;;;;;;;5114841;28;20408;-78
2020/12/02 01:58:02;;;;;;;51.10;34.97;;;;;;;;;;5114192;28;20393;-78
2020/12/02 02:00:32;;;;;;;48.30;34.28;;;;;;;;;;5095722;28;20452;-78
2020/12/02 02:03:00;;;;;;;47.80;34.25;;;;;;;;;;5095081;28;20724;-78
2020/12/02 02:05:28;;;;;;;51.15;36.33;;;;;;;;;;5113950;28;20392;-79
2020/12/02 02:07:55;;;;;;;49.42;33.47;;;;;;;;;;5095651;28;20428;-78
2020/12/02 02:10:25;;;;;;;50.27;34.10;;;;;;;;;;5114039;28;20433;-78
2020/12/02 02:13:05;;;;;;;46.30;32.88;;;;;;;;;;5113963;28;20401;-79
2020/12/02 02:15:42;;;;;;;51.78;35.72;;;;;;;;;;5093498;28;20396;-79
2020/12/02 02:18:10;;;;;;;47.70;33.40;;;;;;;;;;5113926;28;20393;-78
2020/12/02 02:20:37;;;;;;;45.58;33.05;;;;;;;;;;5090137;28;20460;-78
2020/12/02 02:23:06;;;;;;;48.92;34.67;;;;;;;;;;5093409;28;20390;-78
2020/12/02 02:25:33;;;;;;;50.07;35.27;;;;;;;;;;5099624;28;20889;-78
2020/12/02 02:28:01;;;;;;;51.67;35.47;;;;;;;;;;5109910;28;20440;-78
2020/12/02 02:30:27;;;;;;;56.97;36.90;;;;;;;;;;5105557;28;20404;-79
2020/12/02 02:32:54;;;;;;;49.95;34.10;;;3.10;99.90;;;;;;5091966;28;20931;-79
2020/12/02 02:35:21;;;;;;;48.45;33.13;;;3.20;99.90;;;;;;5110210;28;20898;-79
2020/12/02 02:37:47;;;;;;;47.73;32.93;;;3.20;99.90;;;;;;5091605;28;20409;-79
2020/12/02 02:40:14;;;;;;;45.35;32.85;;;3.50;99.90;;;;;;5108468;28;20411;-79
2020/12/02 02:42:41;;;;;;;43.80;32.63;;;;;;;;;;5091601;28;20402;-79
2020/12/02 02:45:12;;;;;;;44.70;32.42;;;3.60;99.90;;;;;;5091741;28;20780;-78
2020/12/02 02:47:38;;;;;;;49.13;34.70;;;3.80;99.90;;;;;;5091551;28;20900;-79
2020/12/02 02:50:06;;;;;;;45.08;31.55;;;3.60;99.90;;;;;;5095077;28;20394;-79
2020/12/02 02:52:32;;;;;;;47.28;33.85;;;3.50;99.90;;;;;;5111658;28;20911;-79
2020/12/02 02:54:58;;;;;;;49.83;34.67;;;3.30;99.90;;;;;;5113269;28;20384;-79
2020/12/02 02:57:24;;;;;;;45.67;32.60;;;3.30;99.90;;;;;;5092919;28;20753;-79
2020/12/02 02:59:50;;;;;;;45.95;32.80;;;3.40;99.90;;;;;;5101438;28;20412;-79
2020/12/02 03:02:20;;;;;;;43.40;31.83;;;3.60;99.90;;;;;;5113109;28;20412;-79
2020/12/02 03:04:46;;;;;;;51.07;35.20;;;3.50;99.90;;;;;;5113082;28;20488;-79
2020/12/02 03:07:15;;;;;;;45.63;32.83;;;3.50;99.90;;;;;;5091366;28;20480;-79
2020/12/02 03:09:42;;;;;;;52.22;35.90;;;3.50;99.90;;;;;;5091269;28;20398;-79
2020/12/02 03:12:08;;;;;;;47.63;33.22;;;3.50;99.90;;;;;;5085244;28;20392;-79
2020/12/02 03:14:41;;;;;;;61.03;39.90;;;3.50;99.90;;;;;;5109590;28;20414;-80
2020/12/02 03:17:12;;;;;;;72.93;45.13;;;3.20;99.90;;;;;;5112919;28;20512;-79
2020/12/02 03:19:44;;;;;;;84.22;48.17;;;3.30;99.90;;;;;;5094483;28;20487;-79
2020/12/02 03:22:11;;;;;;;85.07;49.10;;;;;;;;;;5113021;28;20391;-79
2020/12/02 03:24:38;;;;;;;94.22;51.97;;;;;;;;;;5112670;28;20744;-79
2020/12/02 03:27:04;;;;;;;104.77;53.50;;;;;;;;;;5112741;28;20399;-79
2020/12/02 03:29:30;;;;;;;90.60;48.72;;;;;;;;;;5112849;28;20389;-79
2020/12/02 03:31:56;;;;;;;87.80;48.08;;;3.10;99.90;;;;;;5088658;28;20495;-79
2020/12/02 03:34:22;;;;;;;78.65;45.42;;;2.20;99.90;;;;;;5112701;28;20424;-79
2020/12/02 03:36:49;;;;;;;70.65;41.78;;;2.30;99.90;;;;;;5098222;28;20391;-79
2020/12/02 03:39:18;;;;;;;67.30;40.70;;;3.10;99.90;;;;;;5112479;28;20424;-79
2020/12/02 03:41:46;;;;;;;70.65;43.00;;;;;;;;;;5092905;28;20451;-79
2020/12/02 03:44:14;;;;;;;66.55;40.08;;;2.40;99.90;;;;;;5091138;28;20397;-79
2020/12/02 03:46:43;;;;;;;89.72;47.45;;;2.50;99.90;;;;;;5103463;28;20444;-79
2020/12/02 03:49:09;;;;;;;88.78;48.05;;;2.50;99.90;;;;;;5091435;28;20392;-79
2020/12/02 03:51:35;;;;;;;93.10;49.13;;;2.40;99.90;;;;;;5101879;28;20380;-79
2020/12/02 03:54:03;;;;;;;88.47;48.17;;;2.40;99.90;;;;;;5112510;28;20420;-79
2020/12/02 03:56:29;;;;;;;80.30;44.55;;;2.50;99.90;;;;;;5116095;28;20404;-79
2020/12/02 03:58:55;;;;;;;62.37;39.70;;;2.50;99.90;;;;;;5116636;28;20392;-79
2020/12/02 04:01:22;;;;;;;60.25;39.17;;;2.50;99.90;;;;;;5102780;28;20384;-79
2020/12/02 04:03:50;;;;;;;59.50;38.35;;;2.60;99.90;;;;;;5093509;28;20391;-79
2020/12/02 04:06:17;;;;;;;56.65;37.20;;;2.60;99.90;;;;;;5098223;28;20414;-79
2020/12/02 04:08:44;;;;;;;53.63;36.80;;;2.70;99.90;;;;;;5116540;28;20416;-81
2020/12/02 04:11:13;;;;;;;55.10;37.38;;;2.80;99.90;;;;;;5097405;28;20390;-79
2020/12/02 04:13:39;;;;;;;66.90;41.25;;;2.80;99.90;;;;;;5094097;28;20397;-79
2020/12/02 04:16:05;;;;;;;72.25;42.55;;;2.70;99.90;;;;;;5102101;28;20439;-78
2020/12/02 04:18:31;;;;;;;82.55;46.17;;;2.60;99.90;;;;;;5112036;28;20431;-79
2020/12/02 04:20:57;;;;;;;85.07;48.17;;;2.40;99.90;;;;;;5087988;28;20495;-79
2020/12/02 04:23:23;;;;;;;84.88;47.58;;;;;;;;;;5103160;28;20877;-78
2020/12/02 04:25:50;;;;;;;75.90;45.72;;;2.30;99.90;;;;;;5097898;28;20404;-79
2020/12/02 04:28:17;;;;;;;64.75;41.90;;;2.40;99.90;;;;;;5094363;28;20485;-79
2020/12/02 04:30:44;;;;;;;67.15;42.55;;;2.50;99.90;;;;;;5102578;28;20388;-79
2020/12/02 04:33:10;;;;;;;68.15;43.15;;;2.50;99.90;;;;;;5090837;28;20404;-80
2020/12/02 04:35:36;;;;;;;66.13;42.15;;;2.40;99.90;;;;;;5115840;28;20441;-79
2020/12/02 04:38:02;;;;;;;69.60;41.20;;;2.20;99.90;;;;;;5115750;28;20746;-79
2020/12/02 04:40:32;;;;;;;63.88;40.00;;;2.10;99.90;;;;;;5114358;28;20392;-79
2020/12/02 04:43:06;;;;;;;57.13;37.92;;;2.00;99.90;;;;;;5118130;28;20400;-80
2020/12/02 04:45:33;;;;;;;61.00;37.63;;;2.00;99.90;;;;;;5127670;28;20398;-81
2020/12/02 04:48:01;;;;;;;56.58;37.25;;;1.90;99.90;;;;;;5108333;28;20423;-80
2020/12/02 04:50:29;;;;;;;53.40;35.37;;;1.90;99.90;;;;;;5120311;28;20918;-79
2020/12/02 04:53:30;;;;;;;53.47;34.80;;;2.00;99.90;;;;;;5116414;28;20388;-80
2020/12/02 04:55:57;;;;;;;48.17;33.33;;;2.00;99.90;;;;;;5123732;28;20398;-79
2020/12/02 04:58:29;;;;;;;50.15;34.90;;;2.00;99.90;;;;;;5102811;28;20392;-80
2020/12/02 05:01:13;;;;;;;46.88;32.70;;;2.00;99.90;;;;;;5104405;28;20410;-79
2020/12/02 05:03:48;;;;;;;46.10;32.70;;;2.00;99.90;;;;;;5117561;28;20428;-80
2020/12/02 05:06:21;;;;;;;44.50;31.40;;;2.00;99.90;;;;;;5126727;28;20438;-80
2020/12/02 05:08:47;;;;;;;44.00;31.40;;;2.20;99.90;;;;;;5120941;27;20379;-80
2020/12/02 05:11:13;;;;;;;48.90;32.90;;;2.20;99.90;;;;;;5139846;27;20415;-79
2020/12/02 05:13:39;;;;;;;46.93;33.33;;;2.10;99.90;;;;;;5152469;27;20391;-80
2020/12/02 05:16:09;;;;;;;48.50;33.20;;;2.10;99.90;;;;;;5132085;27;20834;-79
2020/12/02 05:18:35;;;;;;;49.60;34.50;;;2.10;99.90;;;;;;5137925;27;20378;-79
2020/12/02 05:21:19;;;;;;;46.92;33.45;;;2.00;99.90;;;;;;5134873;27;20434;-80
2020/12/02 05:24:01;;;;;;;45.55;32.28;;;2.00;99.90;;;;;;5122795;28;20400;-80
2020/12/02 05:26:28;;;;;;;43.42;32.38;;;2.10;99.90;;;;;;5142454;27;20394;-80
2020/12/02 05:28:54;;;;;;;41.88;31.83;;;2.20;99.90;;;;;;5104476;28;20421;-80
2020/12/02 05:31:25;;;;;;;40.78;29.80;;;2.20;99.90;;;;;;5141071;27;20461;-77
2020/12/02 05:33:51;;;;;;;44.08;32.35;;;2.30;99.90;;;;;;5135870;28;20463;-80
2020/12/02 05:36:24;;;;;;;49.75;35.75;;;2.20;99.90;;;;;;5135821;28;20385;-80
2020/12/02 05:39:00;;;;;;;48.45;35.45;;;2.00;99.90;;;;;;5131889;28;20411;-80
2020/12/02 05:41:27;;;;;;;50.97;37.40;;;1.90;99.90;;;;;;5124332;28;20395;-80
2020/12/02 05:43:58;;;;;;;50.47;36.60;;;1.90;99.90;;;;;;5133797;27;20459;-76
2020/12/02 05:46:29;;;;;;;51.08;36.33;;;1.90;99.90;;;;;;5112544;27;20403;-79
2020/12/02 05:48:59;;;;;;;55.23;40.60;;;1.80;99.90;;;;;;5101439;28;20411;-79
2020/12/02 05:51:25;;;;;;;50.97;38.67;;;1.70;99.90;;;;;;5103472;27;20402;-79
2020/12/02 05:53:55;;;;;;;56.13;39.00;;;1.70;99.90;;;;;;5111696;27;20386;-79
2020/12/02 05:56:24;;;;;;;52.42;37.55;;;1.70;99.90;;;;;;5099932;27;20397;-79
2020/12/02 05:58:53;;;;;;;44.53;34.03;;;1.70;99.90;;;;;;5125917;27;20382;-79
2020/12/02 06:01:21;;;;;;;46.28;34.88;;;1.80;99.90;;;;;;5122330;27;20407;-80
2020/12/02 06:03:52;;;;;;;43.70;32.38;;;2.00;99.90;;;;;;5120867;27;20390;-79
2020/12/02 06:06:18;;;;;;;41.53;31.73;;;2.20;99.90;;;;;;5114099;27;20389;-79
2020/12/02 06:08:46;;;;;;;41.10;31.38;;;2.30;99.90;;;;;;5114065;28;20400;-79
2020/12/02 06:11:28;;;;;;;38.88;29.80;;;2.40;99.90;;;;;;5126668;27;20382;-79
2020/12/02 06:13:56;;;;;;;40.30;32.03;;;2.50;99.90;;;;;;5114571;28;20385;-80
2020/12/02 06:16:38;;;;;;;41.00;31.57;;;2.50;99.90;;;;;;5114397;27;20481;-80
2020/12/02 06:19:21;;;;;;;39.33;30.70;;;2.40;99.90;;;;;;5107272;28;20445;-80
2020/12/02 06:21:50;;;;;;;40.33;31.67;;;2.40;99.90;;;;;;5083318;28;20412;-80
2020/12/02 06:24:35;;;;;;;39.17;30.42;;;2.50;99.90;;;;;;5100582;28;20389;-80
2020/12/02 06:27:03;;;;;;;38.92;31.23;;;2.50;99.90;;;;;;5095366;28;20865;-80
2020/12/02 06:29:31;;;;;;;38.50;29.15;;;2.60;99.90;;;;;;5095531;28;20780;-80
2020/12/02 06:32:00;;;;;;;38.50;29.45;;;2.60;99.90;;;;;;5099564;27;20386;-80
2020/12/02 06:34:29;;;;;;;42.05;32.00;;;2.60;99.90;;;;;;5094198;28;20753;-78
2020/12/02 06:37:11;;;;;;;46.88;34.78;;;2.50;99.90;;;;;;5114293;27;20397;-79
2020/12/02 06:39:40;;;;;;;51.05;37.05;;;2.20;99.90;;;;;;5110831;27;20450;-79
2020/12/02 06:42:26;;;;;;;49.25;36.10;;;2.00;99.90;;;;;;5117139;27;20392;-79
2020/12/02 06:45:11;;;;;;;45.75;34.10;;;1.90;99.90;;;;;;5096575;28;20749;-78
2020/12/02 06:47:56;;;;;;;46.65;34.22;;;2.00;99.90;;;;;;5099712;28;20427;-80
2020/12/02 06:50:25;;;;;;;43.95;32.40;;;2.20;99.90;;;;;;5093510;28;20396;-81
2020/12/02 06:52:51;;;;;;;48.45;34.15;;;2.30;99.90;;;;;;5106895;28;20479;-83
2020/12/02 06:55:23;;;;;;;49.50;33.70;;;2.40;99.90;;;;;;5102841;28;20403;-82
2020/12/02 06:57:56;;;;;;;48.75;34.22;;;2.50;99.90;;;;;;5115562;28;20380;-82
2020/12/02 07:00:24;;;;;;;51.15;34.33;;;2.50;99.90;;;;;;5103399;28;20404;-82
2020/12/02 07:02:57;;;;;;;54.05;35.15;;;2.40;99.90;;;;;;5104064;28;20420;-81
2020/12/02 07:05:32;;;;;;;51.40;34.80;;;2.50;99.90;;;;;;5110771;27;20393;-81
2020/12/02 07:08:15;;;;;;;53.43;35.60;;;2.50;99.90;;;;;;5094043;28;20392;-82
2020/12/02 07:10:42;;;;;;;49.45;32.53;;;2.50;99.90;;;;;;5113633;28;20426;-82
2020/12/02 07:13:14;;;;;;;51.13;33.28;;;2.50;99.90;;;;;;5086193;28;20413;-82
2020/12/02 07:15:42;;;;;;;49.17;32.90;;;2.50;99.90;;;;;;5102908;28;20958;-82
2020/12/02 07:18:14;;;;;;;55.88;35.35;;;2.50;99.90;;;;;;5098805;28;20388;-82
2020/12/02 07:20:45;;;;;;;57.05;35.97;;;2.50;99.90;;;;;;5093318;28;20409;-82
2020/12/02 07:23:14;;;;;;;50.85;32.78;;;2.50;99.90;;;;;;5087801;28;20406;-82
2020/12/02 07:25:40;;;;;;;51.92;34.25;;;2.60;99.90;;;;;;5097127;28;20401;-82
2020/12/02 07:28:14;;;;;;;52.03;32.92;;;2.60;99.90;;;;;;5108185;28;21019;-76
2020/12/02 07:30:41;;;;;;;54.83;33.70;;;2.70;99.90;;;;;;5089566;28;20947;-82
2020/12/02 07:33:22;;;;;;;49.67;32.33;;;2.70;99.90;;;;;;5104522;28;20425;-81
2020/12/02 07:36:06;;;;;;;58.03;34.25;;;2.70;99.90;;;;;;5107726;28;20401;-81
2020/12/02 07:38:32;;;;;;;54.38;33.95;;;2.70;99.90;;;;;;5101371;28;20425;-78
2020/12/02 07:41:10;;;;;;;60.05;35.78;;;2.70;99.90;;;;;;5098583;28;21627;-82
2020/12/02 07:43:37;;;;;;;60.60;36.63;;;2.70;99.90;;;;;;5103677;28;20405;-81
2020/12/02 07:46:03;;;;;;;56.75;35.67;;;2.60;99.90;;;;;;5087739;28;20758;-82
2020/12/02 07:48:33;;;;;;;75.65;42.25;;;2.50;99.90;;;;;;5102768;28;20404;-82
2020/12/02 07:51:04;;;;;;;70.70;41.08;;;2.40;99.90;;;;;;5102426;28;20386;-82
2020/12/02 07:53:39;;;;;;;73.03;42.20;;;2.30;99.90;;;;;;5095468;28;20432;-82
2020/12/02 07:56:12;;;;;;;66.68;40.08;;;2.30;99.90;;;;;;5088256;28;20908;-81
2020/12/02 07:58:42;;;;;;;64.20;37.30;;;2.30;99.90;;;;;;5092577;28;20400;-82
2020/12/02 08:01:22;;;;;;;62.10;36.78;;;2.30;99.90;;;;;;5098135;28;20406;-81
2020/12/02 08:03:48;;;;;;;57.28;35.13;;;2.40;99.90;;;;;;5103900;28;20390;-81
2020/12/02 08:06:23;;;;;;;57.67;36.03;;;2.50;99.90;;;;;;5106274;28;20396;-82
2020/12/02 08:08:48;;;;;;;59.55;36.45;;;2.50;99.90;;;;;;5099721;28;20393;-83
2020/12/02 08:11:17;;;;;;;62.37;37.63;;;2.50;99.90;;;;;;5100142;28;20404;-82
2020/12/02 08:13:50;;;;;;;57.60;36.65;;;2.40;99.90;;;;;;5095164;28;20403;-81
2020/12/02 08:16:23;;;;;;;53.35;33.95;;;2.50;99.90;;;;;;5088479;28;20398;-82
2020/12/02 08:18:54;;;;;;;55.60;35.55;;;2.60;99.90;;;;;;5101912;28;20398;-82
2020/12/02 08:21:23;;;;;;;55.45;35.53;;;2.70;99.90;;;;;;5090220;28;20406;-82
2020/12/02 08:24:03;;;;;;;51.40;34.00;;;2.80;99.90;;;;;;5103755;28;20397;-81
2020/12/02 08:26:30;;;;;;;52.50;34.38;;;2.80;99.90;;;;;;5091604;28;20400;-82
2020/12/02 08:29:03;;;;;;;53.90;35.15;;;2.90;99.90;;;;;;5098142;28;20506;-81
2020/12/02 08:31:31;;;;;;;61.03;37.87;;;2.90;99.90;;;;;;5090957;28;20479;-81
2020/12/02 08:34:14;;;;;;;55.63;34.93;;;;;;;;;;5096215;28;20458;-81
2020/12/02 08:36:42;;;;;;;59.88;35.92;;;;;;;;;;5102114;28;20498;-81
2020/12/02 08:39:08;;;;;;;54.92;35.95;;;;;;;;;;5119196;28;20454;-82
2020/12/02 08:41:40;;;;;;;55.67;35.92;;;;;;;;;;5110907;28;20419;-81
2020/12/02 08:44:07;;;;;;;51.60;34.25;;;;;;;;;;5140992;27;20392;-81
2020/12/02 08:46:45;;;;;;;56.53;35.90;;;;;;;;;;5114481;28;20401;-81
2020/12/02 08:49:11;;;;;;;57.83;36.80;;;2.80;99.90;;;;;;5124254;27;20400;-81
2020/12/02 08:51:37;;;;;;;55.58;35.80;;;3.40;99.90;;;;;;5137282;27;20385;-82
2020/12/02 08:54:09;;;;;;;55.40;36.55;;;3.40;99.90;;;;;;5129564;28;20487;-81
2020/12/02 08:56:36;;;;;;;53.85;34.60;;;;;;;;;;5124154;27;20470;-81
2020/12/02 08:59:05;;;;;;;55.75;35.55;;;3.50;99.90;;;;;;5152582;27;20386;-81
2020/12/02 09:01:31;;;;;;;56.83;35.10;;;;;;;;;;5144572;27;20423;-81
2020/12/02 09:03:57;;;;;;;56.75;35.88;;;;;;;;;;5140160;27;20394;-81
2020/12/02 09:06:24;;;;;;;56.25;36.50;;;;;;;;;;5122762;27;20746;-81
2020/12/02 09:08:52;;;;;;;57.03;35.42;;;3.60;99.90;;;;;;5128690;27;20398;-81
2020/12/02 09:11:23;;;;;;;55.20;35.85;;;3.60;99.90;;;;;;5131654;27;20394;-83
2020/12/02 09:13:49;;;;;;;57.57;36.70;;;3.70;99.90;;;;;;5118329;28;20388;-79
2020/12/02 09:16:39;;;;;;;60.90;39.08;;;3.70;99.90;;;;;;5136986;27;20447;-80
2020/12/02 09:19:08;;;;;;;64.53;40.90;;;3.60;99.90;;;;;;5141336;27;20392;-81
2020/12/02 09:21:37;;;;;;;72.68;43.67;;;3.50;99.90;;;;;;5126200;28;20420;-81
2020/12/02 09:24:09;;;;;;;76.73;46.67;;;3.40;99.90;;;;;;5135702;28;20387;-79
2020/12/02 09:26:36;;;;;;;70.50;45.15;;;3.30;99.90;;;;;;5123042;28;20381;-80
2020/12/02 09:29:47;;;;;;;70.82;44.30;;;3.30;99.90;;;;;;5107746;28;20385;-79
2020/12/02 09:33:46;;;;;;;69.03;44.60;;;3.20;99.90;;;;;;5133744;27;20396;-77
2020/12/02 09:36:06;;;;;;;70.90;45.83;;;3.20;99.90;;;;;;5038876;28;20383;-81
2020/12/02 09:38:44;;;;;;;84.10;50.00;;;3.10;99.90;;;;;;5137831;28;20404;-78
2020/12/02 09:41:31;;;;;;;70.32;45.70;;;3.20;99.90;;;;;;5133332;27;20394;-81
2020/12/02 09:44:13;;;;;;;68.65;45.63;;;3.20;99.90;;;;;;5123920;27;20380;-80
2020/12/02 09:46:43;;;;;;;71.03;44.72;;;3.30;99.90;;;;;;5114377;28;20787;-81
2020/12/02 09:49:12;;;;;;;62.22;41.30;;;3.30;99.90;;;;;;5107979;28;20389;-78
2020/12/02 09:51:40;;;;;;;64.67;40.70;;;3.50;99.90;;;;;;5128371;28;20384;-79
2020/12/02 09:54:10;;;;;;;59.05;39.25;;;3.70;99.90;;;;;;5099871;28;20447;-81
2020/12/02 09:56:41;;;;;;;58.85;38.63;;;3.70;99.90;;;;;;5133650;28;20379;-82
2020/12/02 09:59:10;;;;;;;57.85;39.20;;;3.80;99.90;;;;;;5144954;27;20891;-83
2020/12/02 10:01:49;;;;;;;55.00;37.33;;;3.90;99.90;;;;;;5110672;28;20752;-81
2020/12/02 10:04:38;;;;;;;55.05;36.75;;;;;;;;;;5121687;27;20817;-81
2020/12/02 10:07:25;;;;;;;50.47;36.08;;;4.10;99.90;;;;;;5122273;28;25095;-81
2020/12/02 10:10:24;;;;;;;55.72;37.45;;;4.50;99.90;;;;;;5128672;28;20476;-82
2020/12/02 10:13:04;;;;;;;55.25;37.40;;;4.50;99.90;;;;;;5076705;28;25103;-83
2020/12/02 10:15:39;;;;;;;52.03;36.95;;;4.70;99.90;;;;;;5105787;28;20400;-82
2020/12/02 10:18:31;;;;;;;49.55;34.17;;;4.70;99.90;;;;;;5096258;28;20400;-81
2020/12/02 10:21:08;;;;;;;50.22;34.35;;;4.80;99.90;;;;;;5114635;28;20617;-78
2020/12/02 10:24:11;;;;;;;59.00;39.63;;;4.70;99.90;;;;;;5094769;28;25186;-81
2020/12/02 10:27:07;;;;;;;61.57;41.03;;;4.70;99.90;;;;;;5126427;27;25122;-81
2020/12/02 10:29:39;;;;;;;59.83;40.33;;;4.60;99.90;;;;;;5104770;27;25094;-80
2020/12/02 10:32:20;;;;;;;65.30;41.85;;;4.50;99.90;;;;;;5086160;28;20438;-80
2020/12/02 10:34:46;;;;;;;61.33;40.70;;;4.40;99.90;;;;;;5114480;27;25109;-81
2020/12/02 10:37:18;;;;;;;60.13;39.57;;;4.40;99.90;;;;;;5112526;28;20404;-81
2020/12/02 10:39:45;;;;;;;62.83;41.25;;;4.40;99.90;;;;;;5106047;27;20950;-81
2020/12/02 10:42:20;;;;;;;66.05;41.78;;;4.30;99.90;;;;;;5091743;28;20388;-81
2020/12/02 10:45:01;;;;;;;64.88;43.45;;;4.20;99.90;;;;;;5106281;28;25112;-82
2020/12/02 10:48:00;;;;;;;71.22;45.97;;;4.20;99.90;;;;;;5119048;28;20385;-81
2020/12/02 10:50:30;;;;;;;75.30;47.22;;;4.10;99.90;;;;;;5126052;27;20466;-81
2020/12/02 10:52:58;;;;;;;73.50;46.63;;;4.10;99.90;;;;;;5112026;28;20490;-81
2020/12/02 10:55:28;;;;;;;76.03;46.53;;;4.10;99.90;;;;;;5130766;28;20391;-80
2020/12/02 10:58:00;;;;;;;71.45;45.03;;;4.10;99.90;;;;;;5130172;28;20400;-81
2020/12/02 11:00:33;;;;;;;70.30;46.25;;;4.10;99.90;;;;;;5115619;28;20439;-79
2020/12/02 11:03:24;;;;;;;73.57;45.70;;;4.10;99.90;;;;;;5124975;28;20398;-80
2020/12/02 11:06:27;;;;;;;70.57;44.43;;;4.10;99.90;;;;;;5138159;28;20837;-82
2020/12/02 11:09:07;;;;;;;73.20;45.67;;;4.10;99.90;;;;;;5120357;28;20420;-83
2020/12/02 11:11:56;;;;;;;64.72;41.60;;;4.10;99.90;;;;;;5104670;28;25139;-81
2020/12/02 11:14:32;;;;;;;60.13;39.88;;;4.30;99.90;;;;;;5126929;27;25111;-81
2020/12/02 11:17:05;;;;;;;64.53;40.60;;;4.20;99.90;;;;;;5110298;28;20419;-81
2020/12/02 11:19:51;;;;;;;61.47;40.03;;;4.20;99.90;;;;;;5090551;27;20513;-79
2020/12/02 11:22:42;;;;;;;61.37;39.33;;;4.30;99.90;;;;;;5109905;27;25088;-81
2020/12/02 11:25:21;;;;;;;60.17;38.78;;;4.40;99.90;;;;;;5115038;27;20431;-81
2020/12/02 11:27:48;;;;;;;61.08;40.40;;;4.40;99.90;;;;;;5109844;28;20447;-80
2020/12/02 11:30:21;;;;;;;60.00;39.55;;;4.40;99.90;;;;;;5133918;28;20401;-81
2020/12/02 11:33:12;;;;;;;60.58;39.78;;;4.40;99.90;;;;;;5125554;27;20456;-82
2020/12/02 11:36:06;;;;;;;62.58;43.10;;;4.30;99.90;;;;;;5126093;28;20425;-80
2020/12/02 11:38:39;;;;;;;66.75;44.13;;;4.30;99.90;;;;;;5097428;28;20416;-81
2020/12/02 11:41:09;;;;;;;68.25;44.83;;;4.30;99.90;;;;;;5084375;28;20435;-81
2020/12/02 11:43:41;;;;;;;65.70;43.10;;;4.30;99.90;;;;;;5096758;28;20487;-81
2020/12/02 11:46:12;;;;;;;64.82;42.70;;;4.30;99.90;;;;;;5138171;28;20446;-81
2020/12/02 11:48:43;;;;;;;69.45;45.08;;;4.30;99.90;;;;;;5122702;28;20928;-81
2020/12/02 11:51:18;;;;;;;67.93;44.50;;;4.20;99.90;;;;;;5143962;28;20415;-82
2020/12/02 11:53:49;;;;;;;66.07;43.58;;;4.20;99.90;;;;;;5145078;28;20444;-80
2020/12/02 11:56:23;;;;;;;78.05;49.35;;;4.20;99.90;;;;;;5113061;28;20443;-82
2020/12/02 11:58:58;;;;;;;67.32;42.88;;;4.20;99.90;;;;;;5122688;28;20433;-82
2020/12/02 12:01:40;;;;;;;77.03;47.72;;;4.20;99.90;;;;;;5101412;28;20406;-81
2020/12/02 12:04:18;;;;;;;77.70;48.63;;;4.10;99.90;;;;;;5115692;28;20811;-81
2020/12/02 12:06:47;;;;;;;67.80;44.25;;;4.00;99.90;;;;;;5122447;28;20391;-82
2020/12/02 12:09:16;;;;;;;68.63;42.80;;;4.00;99.90;;;;;;5119770;28;20387;-81
2020/12/02 12:11:43;;;;;;;65.22;43.28;;;4.10;99.90;;;;;;5099131;28;20425;-82
2020/12/02 12:14:17;;;;;;;62.83;40.40;;;4.10;99.90;;;;;;5091256;28;20907;-81
2020/12/02 12:16:57;;;;;;;52.00;35.65;;;4.20;99.90;;;;;;5102373;27;20480;-80
2020/12/02 12:19:34;;;;;;;49.00;35.15;;;4.30;99.90;;;;;;5120414;27;20382;-80
2020/12/02 12:22:14;;;;;;;52.95;36.05;;;4.30;99.90;;;;;;5100221;28;20400;-81
2020/12/02 12:24:45;;;;;;;51.83;34.50;;;4.30;99.90;;;;;;5111801;27;20402;-81
2020/12/02 12:27:13;;;;;;;43.80;30.90;;;4.40;99.90;;;;;;5109337;27;20378;-82
2020/12/02 12:29:39;;;;;;;48.60;33.63;;;4.50;99.90;;;;;;5104804;27;20422;-82
2020/12/02 12:32:11;;;;;;;43.03;31.77;;;4.60;99.90;;;;;;5112028;27;20546;-80
2020/12/02 12:34:42;;;;;;;42.05;29.52;;;;;;;;;;5104473;27;20475;-80
2020/12/02 12:37:13;;;;;;;39.90;29.95;;;;;;;;;;5101960;28;20408;-80
2020/12/02 12:39:44;;;;;;;39.60;28.92;;;4.70;99.90;;;;;;5116741;27;20890;-81
2020/12/02 12:42:12;;;;;;;41.10;31.33;;;4.80;99.90;;;;;;5127936;27;20414;-80
2020/12/02 12:44:39;;;;;;;44.58;31.45;;;5.30;99.90;;;;;;5121567;27;20436;-80
2020/12/02 12:47:17;;;;;;;43.33;32.40;;;4.70;99.90;;;;;;5116276;27;20807;-80
2020/12/02 12:49:43;;;;;;;50.22;34.83;;;4.70;99.90;;;;;;5112816;28;20484;-80
2020/12/02 12:52:14;;;;;;;44.28;32.25;;;4.60;99.90;;;;;;5114637;28;20958;-78
2020/12/02 12:54:42;;;;;;;50.60;35.83;;;4.40;99.90;;;;;;5112280;28;20392;-79
2020/12/02 12:57:13;;;;;;;49.93;35.40;;;4.10;99.90;;;;;;5094963;28;20480;-80
2020/12/02 12:59:39;;;;;;;46.50;33.92;;;;;;;;;;5096376;28;20389;-79
2020/12/02 13:02:08;;;;;;;47.58;34.78;;;3.90;99.90;;;;;;5092393;28;20398;-79
2020/12/02 13:04:35;;;;;;;35.63;28.47;;;3.60;99.90;;;;;;5104284;27;20391;-79
2020/12/02 13:07:20;;;;;;;43.08;29.77;;;3.50;99.90;;;;;;5108630;28;20402;-80
2020/12/02 13:10:12;;;;;;;40.00;29.85;;;3.40;99.90;;;;;;5112621;28;20732;-80
2020/12/02 13:12:49;;;;;;;39.83;28.88;;;3.40;99.90;;;;;;5104774;28;20393;-79
2020/12/02 13:15:20;;;;;;;42.03;32.13;;;3.40;99.90;;;;;;5113872;28;20425;-79
2020/12/02 13:17:56;;;;;;;36.03;27.45;;;3.40;99.90;;;;;;5126930;27;20387;-79